CYPR

Prince Rupert Airport

Prince Rupert, , Canada
METAR CYPR 181600Z AUTO 09005KT 9SM FEW025 SCT044 BKN050 02/02 A2995 RMK SLP145
Observed Flight Rules
Dec-18 @ 16:00 UTC (43 minutes ago) Visual Flight Rules
Wind Visibility Clouds
90° at 5 knots 9 miles
  • Few at 2,500' AGL
  • Scattered at 4,400' AGL
  • Broken at 5,000' AGL
Temperatures Readings
Current 2°C / 36°F
Dewpoint 2°C / 36°F
Humidity 100%
Altimeter 29.95" Hg
Pressure 1014.5 hPa
Elevation 34
METAR CYPR 181600Z AUTO 09005KT 9SM FEW025 SCT044 BKN050 02/02 A2995 RMK SLP145
Observed Flight Rules
Dec-18 @ 16:00 UTC
(43 minutes ago)
VFR
Wind Visibility
90° at 5 knots 9 miles
Clouds
  • Few at 2,500' AGL
  • Scattered at 4,400' AGL
  • Broken at 5,000' AGL
Temperature Dewpoint
2°C / 36°F 2°C / 36°F
Humidity Altimeter Pressure
100% 29.95" Hg 1014.5 hPa